Time;durP1;ratioP1;P1;durP2;ratioP2;P2;SDS_P1;SDS_P2;PMS_P1;PMS_P2;Temp;Humidity;BMP_temperature;BMP_pressure;BME280_temperature;BME280_humidity;BME280_pressure;Samples;Min_cycle;Max_cycle;Signal;HPM_P1;HPM_P2
2022/10/03 00:00:58;;;;;;;12.23;2.70;;;10.00;99.90;;;;;;5013257;28;20407;-63
2022/10/03 00:03:39;;;;;;;13.43;2.60;;;10.00;99.90;;;;;;4989699;28;20038;-66
2022/10/03 00:06:14;;;;;;;11.85;2.22;;;10.00;99.90;;;;;;4999790;28;20045;-63
2022/10/03 00:08:52;;;;;;;10.93;2.20;;;10.00;99.90;;;;;;4987874;28;20037;-66
2022/10/03 00:11:45;;;;;;;7.35;2.22;;;10.00;99.90;;;;;;5009274;28;20049;-65
2022/10/03 00:14:19;;;;;;;12.32;2.03;;;9.90;99.90;;;;;;5008663;28;20452;-63
2022/10/03 00:17:09;;;;;;;9.85;2.40;;;9.90;99.90;;;;;;5006276;28;20460;-63
2022/10/03 00:19:34;;;;;;;9.98;2.90;;;9.90;99.90;;;;;;5013100;28;20495;-64
2022/10/03 00:22:35;;;;;;;12.50;2.28;;;9.90;99.90;;;;;;5006018;28;20163;-63
2022/10/03 00:25:19;;;;;;;13.23;2.83;;;9.90;99.90;;;;;;4988838;28;20038;-64
2022/10/03 00:27:47;;;;;;;;;;;9.90;99.90;;;;;;4987676;28;20132;-64
2022/10/03 00:30:24;;;;;;;7.13;1.65;;;9.80;99.90;;;;;;5017320;28;19921;-63
2022/10/03 00:32:55;;;;;;;6.43;1.95;;;9.80;99.90;;;;;;5010301;28;20037;-63
2022/10/03 00:35:33;;;;;;;8.85;2.03;;;9.90;99.90;;;;;;5018181;28;20053;-66
2022/10/03 00:38:18;;;;;;;7.07;2.15;;;9.90;99.90;;;;;;5020101;28;20504;-62
2022/10/03 00:41:29;;;;;;;15.68;2.83;;;10.00;99.90;;;;;;5007200;28;20041;-65
2022/10/03 00:44:21;;;;;;;16.92;3.20;;;10.10;99.90;;;;;;5016238;28;20041;-63
2022/10/03 00:47:15;;;;;;;12.15;2.47;;;10.10;99.90;;;;;;4987825;28;20041;-62
2022/10/03 00:50:01;;;;;;;10.10;2.17;;;10.20;99.90;;;;;;4987899;28;20393;-63
2022/10/03 00:53:05;;;;;;;14.32;2.67;;;10.30;99.90;;;;;;4997543;28;20041;-64
2022/10/03 00:55:49;;;;;;;9.27;2.13;;;10.30;99.90;;;;;;4999870;28;20076;-65
2022/10/03 00:58:21;;;;;;;9.25;2.13;;;10.40;99.90;;;;;;5000240;28;20454;-63
2022/10/03 01:00:51;;;;;;;12.95;2.28;;;10.40;99.90;;;;;;5022001;28;20131;-61
2022/10/03 01:03:44;;;;;;;17.95;2.78;;;10.50;99.90;;;;;;5022604;28;20048;-64
2022/10/03 01:06:57;;;;;;;11.00;2.15;;;10.50;99.90;;;;;;4997540;28;20049;-63
2022/10/03 01:09:28;;;;;;;11.52;2.03;;;10.40;99.90;;;;;;4931701;28;20047;-62
2022/10/03 01:12:17;;;;;;;11.25;2.25;;;10.50;99.90;;;;;;4931478;28;20506;-63
2022/10/03 01:15:09;;;;;;;10.55;2.05;;;10.50;99.90;;;;;;4991900;28;20053;-64
2022/10/03 01:17:37;;;;;;;10.88;1.90;;;10.40;99.90;;;;;;4990899;28;20045;-62
2022/10/03 01:20:26;;;;;;;9.75;1.90;;;10.40;99.90;;;;;;5005973;28;20045;-63
2022/10/03 01:23:06;;;;;;;10.63;1.70;;;10.40;99.90;;;;;;5012878;28;20053;-66
2022/10/03 01:25:40;;;;;;;7.13;1.85;;;10.40;99.90;;;;;;5020086;28;20309;-64
2022/10/03 01:31:09;;;;;;;9.30;1.92;;;10.40;99.90;;;;;;5015034;28;20046;-63
2022/10/03 01:33:52;;;;;;;6.90;1.58;;;10.40;99.90;;;;;;5012334;28;20029;-64
2022/10/03 01:36:32;;;;;;;11.90;2.28;;;10.30;99.90;;;;;;4998580;28;20456;-62
2022/10/03 01:39:05;;;;;;;10.25;1.98;;;10.30;99.90;;;;;;5002176;28;20065;-64
2022/10/03 01:41:57;;;;;;;10.35;1.90;;;10.30;99.90;;;;;;5001110;28;20046;-66
2022/10/03 01:44:30;;;;;;;11.43;1.55;;;10.30;99.90;;;;;;4979334;28;20049;-62
2022/10/03 01:47:05;;;;;;;8.32;2.17;;;10.20;99.90;;;;;;5014835;28;20034;-64
2022/10/03 01:49:42;;;;;;;6.72;1.60;;;10.20;99.90;;;;;;5002624;28;20551;-64
2022/10/03 01:53:15;;;;;;;9.77;2.30;;;10.20;99.90;;;;;;5016867;28;20068;-61
2022/10/03 01:56:14;;;;;;;8.30;1.88;;;10.10;99.90;;;;;;4917409;29;20140;-62
2022/10/03 01:59:01;;;;;;;10.45;2.97;;;10.10;99.90;;;;;;5016945;28;20030;-66
2022/10/03 02:01:53;;;;;;;10.50;2.17;;;10.00;99.90;;;;;;5014017;28;20293;-64
2022/10/03 02:04:51;;;;;;;7.60;1.75;;;10.00;99.90;;;;;;4984186;28;20392;-66
2022/10/03 02:07:43;;;;;;;7.50;1.80;;;10.00;99.90;;;;;;5018105;28;20038;-64
2022/10/03 02:10:18;;;;;;;4.10;1.60;;;9.90;99.90;;;;;;5005053;28;20361;-63
2022/10/03 02:13:04;;;;;;;11.13;1.80;;;9.90;99.90;;;;;;4994095;28;20076;-64
2022/10/03 02:15:54;;;;;;;7.18;1.77;;;9.80;99.90;;;;;;4996923;28;20045;-64
2022/10/03 02:18:34;;;;;;;9.27;1.90;;;9.80;99.90;;;;;;4994506;28;20046;-66
2022/10/03 02:21:09;;;;;;;9.60;2.05;;;9.80;99.90;;;;;;4989161;28;20041;-63
2022/10/03 02:23:35;;;;;;;12.57;1.45;;;9.80;99.90;;;;;;4977190;28;20132;-65
2022/10/03 02:26:04;;;;;;;7.53;1.65;;;9.70;99.90;;;;;;4983266;28;20392;-64
2022/10/03 02:28:55;;;;;;;11.82;1.85;;;9.70;99.90;;;;;;4977344;28;20610;-63
2022/10/03 02:31:32;;;;;;;9.82;1.80;;;9.70;99.90;;;;;;4977354;28;20470;-68
2022/10/03 02:34:23;;;;;;;11.05;2.08;;;9.70;99.90;;;;;;4995505;28;20029;-64
2022/10/03 02:37:19;;;;;;;12.13;1.90;;;9.70;99.90;;;;;;4990109;28;20635;-65
2022/10/03 02:40:36;;;;;;;7.68;1.77;;;9.70;99.90;;;;;;5021874;28;20349;-64
2022/10/03 02:43:33;;;;;;;6.68;1.63;;;9.60;99.90;;;;;;4942598;28;20092;-64
2022/10/03 02:45:58;;;;;;;7.30;1.70;;;9.60;99.90;;;;;;5015690;28;20057;-63
2022/10/03 02:48:52;;;;;;;9.15;1.63;;;9.60;99.90;;;;;;4983065;28;20551;-66
2022/10/03 02:51:30;;;;;;;8.98;1.63;;;9.60;99.90;;;;;;4975053;28;20409;-63
2022/10/03 02:54:44;;;;;;;10.10;1.58;;;9.50;99.90;;;;;;5014210;28;20509;-66
2022/10/03 02:57:32;;;;;;;6.07;1.83;;;9.50;99.90;;;;;;4992649;28;20057;-66
2022/10/03 03:00:13;;;;;;;8.32;1.50;;;9.50;99.90;;;;;;4998693;28;20053;-67
2022/10/03 03:02:53;;;;;;;11.75;2.00;;;9.50;99.90;;;;;;4983869;28;20159;-64
2022/10/03 03:05:57;;;;;;;6.32;1.50;;;9.40;99.90;;;;;;4998828;28;20041;-63
2022/10/03 03:09:01;;;;;;;5.85;1.33;;;9.40;99.90;;;;;;4991961;28;20484;-66
2022/10/03 03:11:39;;;;;;;4.13;1.40;;;9.40;99.90;;;;;;4987756;28;20484;-66
2022/10/03 03:14:39;;;;;;;6.65;1.55;;;9.40;99.90;;;;;;5003562;28;20292;-63
2022/10/03 03:17:46;;;;;;;11.55;1.90;;;9.40;99.90;;;;;;4984788;28;20088;-65
2022/10/03 03:20:45;;;;;;;9.85;2.20;;;9.30;99.90;;;;;;4973895;28;20519;-65
2022/10/03 03:23:23;;;;;;;6.95;1.60;;;9.30;99.90;;;;;;5001612;28;20045;-64
2022/10/03 03:25:51;;;;;;;8.88;1.48;;;9.10;99.90;;;;;;5009413;28;20096;-63
2022/10/03 03:28:35;;;;;;;9.00;1.45;;;9.20;99.90;;;;;;4979952;28;20132;-63
2022/10/03 03:31:09;;;;;;;9.50;1.98;;;9.20;99.90;;;;;;5011417;28;20050;-64
2022/10/03 03:34:13;;;;;;;6.50;2.00;;;9.20;99.90;;;;;;4990910;28;20436;-65
2022/10/03 03:36:51;;;;;;;4.88;1.30;;;9.20;99.90;;;;;;4985422;28;20041;-66
2022/10/03 03:39:33;;;;;;;3.85;1.83;;;9.20;99.90;;;;;;4985147;28;20041;-63
2022/10/03 03:42:31;;;;;;;7.63;1.70;;;9.20;99.90;;;;;;4998532;28;20439;-64
2022/10/03 03:45:24;;;;;;;7.18;1.80;;;9.20;99.90;;;;;;4972937;28;20113;-67
2022/10/03 03:48:07;;;;;;;8.13;2.78;;;9.20;99.90;;;;;;4994979;28;20073;-63
2022/10/03 03:50:51;;;;;;;11.38;2.05;;;9.10;99.90;;;;;;4992333;28;20501;-60
2022/10/03 03:53:26;;;;;;;5.80;1.52;;;9.10;99.90;;;;;;5021274;28;20033;-64
2022/10/03 03:56:08;;;;;;;7.35;1.48;;;9.00;99.90;;;;;;5016546;28;20517;-64
2022/10/03 03:59:15;;;;;;;7.88;1.40;;;9.00;99.90;;;;;;5029352;28;20033;-65
2022/10/03 04:02:12;;;;;;;6.63;1.75;;;9.10;99.90;;;;;;5004238;28;20042;-63
2022/10/03 04:04:47;;;;;;;6.72;2.15;;;9.00;99.90;;;;;;4998988;28;20124;-64
2022/10/03 04:07:49;;;;;;;7.35;1.60;;;9.10;99.90;;;;;;4983508;28;20045;-63
2022/10/03 04:10:41;;;;;;;5.65;1.50;;;9.00;99.90;;;;;;4997526;28;20045;-67
2022/10/03 04:13:24;;;;;;;4.72;1.63;;;9.00;99.90;;;;;;4955337;28;20054;-62
2022/10/03 04:16:09;;;;;;;6.70;1.60;;;9.00;99.90;;;;;;4987843;28;20393;-62
2022/10/03 04:18:59;;;;;;;5.57;1.92;;;9.00;99.90;;;;;;5014074;28;20052;-65
2022/10/03 04:22:02;;;;;;;5.90;1.52;;;9.00;99.90;;;;;;4981368;28;20045;-64
2022/10/03 04:24:36;;;;;;;5.70;1.50;;;8.90;99.90;;;;;;4989336;28;20037;-62
2022/10/03 04:27:33;;;;;;;4.93;1.25;;;8.90;99.90;;;;;;5003393;28;20041;-65
2022/10/03 04:30:15;;;;;;;5.85;1.65;;;8.90;99.90;;;;;;4962980;28;20128;-63
2022/10/03 04:33:01;;;;;;;9.77;1.80;;;8.90;99.90;;;;;;5006773;28;20041;-65
2022/10/03 04:35:35;;;;;;;4.63;1.52;;;8.90;99.90;;;;;;4972977;28;20106;-65
2022/10/03 04:38:43;;;;;;;6.75;1.80;;;8.90;99.90;;;;;;5001954;28;20033;-63
2022/10/03 04:41:28;;;;;;;8.88;2.10;;;8.90;99.90;;;;;;4980736;28;20049;-65
2022/10/03 04:44:31;;;;;;;5.30;1.80;;;8.90;99.90;;;;;;5006397;28;20072;-64
2022/10/03 04:47:20;;;;;;;8.82;1.98;;;8.90;99.90;;;;;;4995885;28;20056;-63
2022/10/03 04:49:51;;;;;;;7.05;1.70;;;8.80;99.90;;;;;;5007688;23;20099;-64
2022/10/03 04:52:27;;;;;;;6.07;1.50;;;8.80;99.90;;;;;;4982369;28;20049;-65
2022/10/03 04:55:14;;;;;;;8.43;1.90;;;8.80;99.90;;;;;;4976867;28;20050;-63
2022/10/03 04:58:11;;;;;;;7.78;2.08;;;8.80;99.90;;;;;;4978016;28;20046;-63
2022/10/03 05:00:55;;;;;;;5.93;1.60;;;8.70;99.90;;;;;;4987338;28;20498;-62
2022/10/03 05:03:42;;;;;;;;;;;8.70;99.90;;;;;;4968998;28;20050;-61
2022/10/03 05:06:36;;;;;;;5.05;1.73;;;8.70;99.90;;;;;;4979912;28;19926;-65
2022/10/03 05:09:23;;;;;;;3.67;1.63;;;8.70;99.90;;;;;;4978312;28;20046;-62
2022/10/03 05:12:27;;;;;;;7.45;1.83;;;8.70;99.90;;;;;;4981462;28;20129;-65
2022/10/03 05:15:18;;;;;;;7.93;2.37;;;8.60;99.90;;;;;;4970836;28;20046;-63
2022/10/03 05:18:21;;;;;;;5.28;1.63;;;8.60;99.90;;;;;;4973693;28;20367;-61
2022/10/03 05:21:28;;;;;;;9.70;2.63;;;8.70;99.90;;;;;;4964215;28;20045;-65
2022/10/03 05:24:25;;;;;;;6.72;1.90;;;8.70;99.90;;;;;;4960954;28;20527;-61
2022/10/03 05:27:10;;;;;;;12.80;3.45;;;8.70;99.90;;;;;;4952946;28;20061;-65
2022/10/03 05:30:00;;;;;;;10.65;2.40;;;8.60;99.90;;;;;;4946791;28;20066;-65
2022/10/03 05:33:13;;;;;;;4.55;2.00;;;8.60;99.90;;;;;;4965994;28;20057;-63
2022/10/03 05:35:53;;;;;;;6.03;1.88;;;8.60;99.90;;;;;;4958023;28;20058;-63
2022/10/03 05:38:33;;;;;;;6.78;2.35;;;8.60;99.90;;;;;;4980844;28;20485;-63
2022/10/03 05:41:17;;;;;;;5.97;2.03;;;8.60;99.90;;;;;;4977560;28;20043;-63
2022/10/03 05:43:42;;;;;;;;;;;8.50;99.90;;;;;;4978214;28;20410;-64
2022/10/03 05:46:41;;;;;;;6.43;2.30;;;8.50;99.90;;;;;;4979013;28;19923;-65
2022/10/03 05:49:28;;;;;;;4.75;2.20;;;8.50;99.90;;;;;;4983359;28;20387;-63
2022/10/03 05:52:18;;;;;;;6.70;1.85;;;8.50;99.90;;;;;;4987092;28;20095;-62
2022/10/03 05:55:11;;;;;;;4.95;1.70;;;8.50;99.90;;;;;;4980657;28;20047;-61
2022/10/03 05:58:03;;;;;;;4.70;1.77;;;8.50;99.90;;;;;;4986933;28;20038;-62
2022/10/03 06:00:31;;;;;;;6.55;3.05;;;8.50;99.90;;;;;;4981610;28;20325;-63
2022/10/03 06:03:21;;;;;;;9.05;2.00;;;8.50;99.90;;;;;;4987911;28;20048;-64
2022/10/03 06:06:23;;;;;;;8.70;2.10;;;8.60;99.90;;;;;;4978138;28;20062;-63
2022/10/03 06:09:20;;;;;;;5.10;1.60;;;8.60;99.90;;;;;;4986381;28;20108;-61
2022/10/03 06:11:57;;;;;;;6.82;1.83;;;8.60;99.90;;;;;;4969482;28;20044;-63
2022/10/03 06:14:48;;;;;;;5.20;1.80;;;8.60;99.90;;;;;;4961184;28;20854;-64
2022/10/03 06:17:52;;;;;;;9.32;2.50;;;8.70;99.90;;;;;;4939175;28;20039;-61
2022/10/03 06:20:42;;;;;;;8.90;1.58;;;8.70;99.90;;;;;;4949171;28;20054;-61
2022/10/03 06:23:30;;;;;;;3.88;1.42;;;8.80;99.90;;;;;;4963585;28;20691;-63
2022/10/03 06:26:37;;;;;;;6.50;1.83;;;8.80;99.90;;;;;;4969525;28;20274;-59
2022/10/03 06:29:37;;;;;;;6.43;2.25;;;8.90;99.90;;;;;;4958686;28;20046;-64
2022/10/03 06:32:33;;;;;;;9.20;3.13;;;9.00;99.90;;;;;;4966690;28;20045;-62
2022/10/03 06:35:24;;;;;;;8.05;2.38;;;9.20;99.90;;;;;;4973554;28;20042;-62
2022/10/03 06:37:58;;;;;;;9.48;2.90;;;9.60;99.90;;;;;;4956620;28;20046;-64
2022/10/03 06:40:46;;;;;;;9.63;2.75;;;10.00;99.90;;;;;;4961895;28;20057;-64
2022/10/03 06:43:30;;;;;;;12.95;3.90;;;10.50;99.90;;;;;;4963018;28;20056;-61
2022/10/03 06:46:02;;;;;;;14.82;4.78;;;10.90;99.90;;;;;;4961242;28;20046;-64
2022/10/03 06:48:49;;;;;;;10.55;3.90;;;11.20;99.90;;;;;;4975700;28;20042;-62
2022/10/03 06:51:17;;;;;;;12.32;3.33;;;11.30;99.90;;;;;;4966682;28;20133;-62
2022/10/03 06:54:31;;;;;;;10.55;3.28;;;11.20;99.90;;;;;;4946721;28;20051;-64
2022/10/03 06:57:30;;;;;;;9.82;3.80;;;11.10;99.90;;;;;;4918873;28;20062;-63
2022/10/03 07:00:14;;;;;;;7.55;2.28;;;11.10;99.90;;;;;;4951032;28;20070;-61
2022/10/03 07:03:19;;;;;;;11.73;2.72;;;11.10;99.90;;;;;;4959663;28;20074;-61
2022/10/03 07:05:48;;;;;;;10.02;2.20;;;11.20;99.90;;;;;;4950867;28;20053;-64
2022/10/03 07:08:16;;;;;;;10.25;2.60;;;11.30;99.90;;;;;;4973890;28;20035;-64
2022/10/03 07:11:03;;;;;;;7.25;2.35;;;11.40;99.90;;;;;;4964978;28;20371;-62
2022/10/03 07:13:29;;;;;;;13.07;2.70;;;11.50;99.90;;;;;;4940147;28;20074;-62
2022/10/03 07:16:19;;;;;;;12.90;2.75;;;11.60;99.90;;;;;;4971968;28;20043;-64
2022/10/03 07:19:04;;;;;;;7.68;2.15;;;11.70;99.90;;;;;;4962363;28;20061;-62
2022/10/03 07:22:08;;;;;;;13.90;2.25;;;11.80;99.90;;;;;;4961683;28;20073;-63
2022/10/03 07:24:55;;;;;;;7.43;1.83;;;11.80;99.90;;;;;;4962644;28;20066;-63
2022/10/03 07:27:36;;;;;;;5.13;1.90;;;11.90;99.90;;;;;;4951189;28;21681;-62
2022/10/03 07:30:18;;;;;;;9.50;2.15;;;12.00;99.90;;;;;;4967453;28;20200;-62
2022/10/03 07:33:15;;;;;;;8.27;2.17;;;12.10;99.90;;;;;;4958208;28;20046;-63
2022/10/03 07:38:56;;;;;;;9.63;2.60;;;12.30;99.90;;;;;;4977318;28;20042;-62
2022/10/03 07:41:45;;;;;;;12.27;2.47;;;12.50;99.90;;;;;;4974886;28;20064;-62
2022/10/03 07:44:29;;;;;;;9.52;2.00;;;12.60;99.90;;;;;;4977452;28;20050;-62
2022/10/03 07:47:18;;;;;;;9.40;1.90;;;12.70;99.90;;;;;;4962149;28;20073;-61
2022/10/03 07:49:52;;;;;;;8.02;1.98;;;12.90;99.90;;;;;;4961304;28;20494;-62
2022/10/03 07:53:07;;;;;;;9.82;2.35;;;13.00;99.90;;;;;;4957263;28;20051;-62
2022/10/03 07:55:45;;;;;;;10.10;2.88;;;13.10;99.90;;;;;;4969633;28;20049;-62
2022/10/03 07:58:33;;;;;;;12.38;2.83;;;13.40;99.90;;;;;;4972381;28;20093;-64
2022/10/03 08:01:18;;;;;;;13.98;2.58;;;13.50;99.90;;;;;;4976460;28;20161;-62
2022/10/03 08:04:19;;;;;;;8.25;2.13;;;13.60;99.90;;;;;;4975056;28;20524;-61
2022/10/03 08:07:14;;;;;;;6.68;2.28;;;13.70;99.90;;;;;;4926202;28;20058;-63
2022/10/03 08:09:57;;;;;;;11.65;2.13;;;13.90;99.90;;;;;;4979319;28;20064;-64
2022/10/03 08:12:31;;;;;;;10.80;2.55;;;14.00;99.90;;;;;;4979933;28;22678;-62
2022/10/03 08:15:20;;;;;;;10.98;2.60;;;14.10;99.90;;;;;;4955427;28;20121;-60
2022/10/03 08:17:57;;;;;;;11.70;2.40;;;14.20;99.90;;;;;;4969247;28;20042;-61
2022/10/03 08:20:48;;;;;;;11.02;2.58;;;14.40;99.90;;;;;;4942645;28;20057;-62
2022/10/03 08:23:42;;;;;;;9.10;1.90;;;14.50;99.90;;;;;;4942485;28;20038;-65
2022/10/03 08:26:07;;;;;;;11.67;2.13;;;14.70;99.90;;;;;;4957177;28;20046;-62
2022/10/03 08:28:58;;;;;;;12.57;2.28;;;14.80;99.90;;;;;;4961551;28;20043;-62
2022/10/03 08:31:30;;;;;;;6.47;1.85;;;14.90;99.90;;;;;;4941028;28;20053;-61
2022/10/03 08:34:22;;;;;;;12.77;2.15;;;14.80;99.90;;;;;;4961671;28;20050;-62
2022/10/03 08:37:19;;;;;;;11.43;2.05;;;14.90;99.90;;;;;;4953345;28;20081;-60
2022/10/03 08:40:22;;;;;;;9.48;2.75;;;15.00;99.90;;;;;;4978093;28;21123;-62
2022/10/03 08:43:06;;;;;;;6.75;1.60;;;15.10;99.90;;;;;;4966104;28;20038;-62
2022/10/03 08:45:50;;;;;;;11.45;2.70;;;15.20;99.90;;;;;;4966861;28;21214;-64
2022/10/03 08:48:53;;;;;;;7.60;1.35;;;15.30;99.90;;;;;;4958009;28;20089;-63
2022/10/03 08:51:39;;;;;;;16.45;2.65;;;15.40;99.90;;;;;;4971939;28;20034;-63
2022/10/03 08:54:07;;;;;;;6.30;1.48;;;15.50;99.90;;;;;;4957867;28;20097;-62
2022/10/03 08:56:44;;;;;;;13.30;2.58;;;15.60;99.90;;;;;;4974797;28;20039;-61
2022/10/03 08:59:41;;;;;;;8.18;1.67;;;15.70;99.90;;;;;;4958716;28;20092;-63
2022/10/03 09:02:40;;;;;;;9.70;1.77;;;15.80;99.90;;;;;;4969898;28;20479;-62
2022/10/03 09:05:24;;;;;;;8.32;1.40;;;15.80;99.90;;;;;;4950067;28;20150;-61
2022/10/03 09:07:59;;;;;;;9.70;1.90;;;15.90;99.90;;;;;;4968289;28;20694;-62
2022/10/03 09:10:34;;;;;;;6.78;1.40;;;16.00;99.90;;;;;;4963922;28;20043;-62
2022/10/03 09:13:47;;;;;;;10.57;2.15;;;16.00;99.90;;;;;;4963979;28;20034;-62
2022/10/03 09:17:03;;;;;;;5.07;1.13;;;16.10;99.90;;;;;;4925940;28;20067;-62
2022/10/03 09:20:07;;;;;;;10.15;1.33;;;16.30;99.90;;;;;;4931569;28;20051;-62
2022/10/03 09:22:46;;;;;;;9.35;1.60;;;16.40;99.90;;;;;;4973221;28;20050;-62
2022/10/03 09:25:14;;;;;;;8.73;1.88;;;16.50;99.90;;;;;;4981776;28;20118;-62
2022/10/03 09:28:26;;;;;;;6.13;1.35;;;16.70;99.90;;;;;;4960841;28;20242;-62
2022/10/03 09:31:02;;;;;;;7.68;1.38;;;16.80;99.90;;;;;;4945730;28;20042;-62
2022/10/03 09:33:57;;;;;;;5.32;0.95;;;16.80;99.90;;;;;;4978622;28;20054;-63
2022/10/03 09:37:00;;;;;;;8.77;1.42;;;16.80;99.90;;;;;;4967692;28;20489;-62
2022/10/03 09:39:38;;;;;;;8.65;1.58;;;16.90;99.90;;;;;;4981353;28;20066;-65
2022/10/03 09:42:16;;;;;;;7.95;1.95;;;16.80;99.90;;;;;;4964740;28;20046;-59
2022/10/03 09:44:44;;;;;;;6.97;1.45;;;16.90;99.90;;;;;;4977804;28;20120;-64
2022/10/03 09:47:57;;;;;;;6.82;1.52;;;16.80;99.90;;;;;;4976468;28;20046;-65
2022/10/03 09:50:45;;;;;;;6.95;1.25;;;16.80;99.90;;;;;;4981273;28;20253;-63
2022/10/03 09:53:28;;;;;;;7.18;1.45;;;16.90;99.90;;;;;;4961497;28;20054;-62
2022/10/03 09:56:22;;;;;;;10.65;1.60;;;17.00;99.90;;;;;;4972462;28;20042;-63
2022/10/03 09:59:12;;;;;;;4.53;1.58;;;17.00;99.90;;;;;;4965793;28;20114;-63
2022/10/03 10:01:52;;;;;;;8.30;1.50;;;17.00;99.90;;;;;;4983202;28;20045;-62
2022/10/03 10:04:35;;;;;;;6.90;1.45;;;17.10;99.90;;;;;;4982493;28;20540;-62
2022/10/03 10:07:20;;;;;;;7.10;1.95;;;17.30;99.90;;;;;;4980399;28;20077;-63
2022/10/03 10:10:20;;;;;;;6.75;1.50;;;17.20;99.90;;;;;;4965759;28;20124;-62
2022/10/03 10:13:23;;;;;;;6.68;1.27;;;17.30;99.90;;;;;;4913724;28;20046;-62
2022/10/03 10:16:08;;;;;;;6.72;1.35;;;17.30;99.90;;;;;;4963964;28;20034;-62
2022/10/03 10:18:55;;;;;;;8.50;1.27;;;17.40;99.90;;;;;;4961375;28;20042;-63
2022/10/03 10:21:49;;;;;;;6.53;1.33;;;17.40;99.90;;;;;;4958050;28;20061;-62
2022/10/03 10:24:35;;;;;;;;;;;17.60;99.90;;;;;;4943636;28;20055;-62
2022/10/03 10:27:18;;;;;;;6.63;1.70;;;17.60;99.90;;;;;;4970127;28;19918;-62
2022/10/03 10:30:21;;;;;;;7.50;2.05;;;17.40;99.90;;;;;;4964350;28;20046;-63
2022/10/03 10:32:52;;;;;;;4.82;1.20;;;17.50;99.90;;;;;;4961558;28;20050;-62
2022/10/03 10:35:33;;;;;;;6.05;1.27;;;17.50;99.90;;;;;;4949515;28;20321;-63
2022/10/03 10:38:33;;;;;;;9.35;1.40;;;17.50;99.90;;;;;;4970848;28;20098;-63
2022/10/03 10:41:16;;;;;;;7.45;1.88;;;17.50;99.90;;;;;;4969565;28;20065;-64
2022/10/03 10:44:15;;;;;;;6.40;1.35;;;17.50;99.90;;;;;;4938990;28;20490;-63
2022/10/03 10:47:28;;;;;;;4.45;1.42;;;17.50;99.90;;;;;;4964401;28;20582;-62
2022/10/03 10:52:50;;;;;;;7.60;1.20;;;17.50;99.90;;;;;;5007363;28;20068;-83
2022/10/03 10:55:19;;;;;;;5.15;1.33;;;17.40;99.90;;;;;;4987599;28;20056;-80
2022/10/03 10:58:22;;;;;;;6.05;1.30;;;17.60;99.90;;;;;;4990508;28;20357;-80
2022/10/03 11:01:24;;;;;;;5.78;1.67;;;17.80;99.90;;;;;;4978869;28;20049;-83
2022/10/03 11:04:33;;;;;;;5.85;1.52;;;18.00;99.90;;;;;;4981127;28;20073;-83
2022/10/03 11:07:37;;;;;;;9.05;1.77;;;18.10;99.90;;;;;;4979660;28;20208;-81
2022/10/03 11:10:27;;;;;;;10.23;1.30;;;18.30;99.90;;;;;;4985903;28;20042;-82
2022/10/03 11:13:08;;;;;;;6.20;1.15;;;18.30;99.90;;;;;;5000495;28;20073;-84
2022/10/03 11:16:01;;;;;;;4.32;1.30;;;18.30;99.90;;;;;;4971122;28;20042;-81
2022/10/03 11:18:45;;;;;;;3.20;0.90;;;18.30;99.90;;;;;;4970202;28;20042;-80
2022/10/03 11:21:41;;;;;;;7.93;2.08;;;18.30;99.90;;;;;;4986516;28;20103;-82
2022/10/03 11:24:28;;;;;;;6.30;1.50;;;18.30;99.90;;;;;;4987638;28;20106;-82
2022/10/03 11:27:32;;;;;;;5.20;1.48;;;18.30;99.90;;;;;;4983067;28;20514;-82
2022/10/03 11:30:42;;;;;;;5.47;1.15;;;18.20;99.90;;;;;;4987923;28;20048;-83
2022/10/03 11:33:11;;;;;;;5.32;1.52;;;17.90;99.90;;;;;;4957699;28;20046;-83
2022/10/03 11:36:16;;;;;;;4.05;1.35;;;18.00;99.90;;;;;;4972990;28;20041;-83
2022/10/03 11:39:02;;;;;;;6.35;1.30;;;18.20;99.90;;;;;;4992784;28;20041;-84
2022/10/03 11:41:53;;;;;;;8.10;1.70;;;18.40;99.90;;;;;;4988957;28;20062;-85
2022/10/03 11:44:33;;;;;;;8.32;1.40;;;18.40;99.90;;;;;;4994924;28;20046;-83
2022/10/03 11:47:36;;;;;;;7.43;1.63;;;18.30;99.90;;;;;;4981756;28;20494;-82
2022/10/03 11:50:32;;;;;;;9.02;1.45;;;18.20;99.90;;;;;;4992456;28;20540;-84
2022/10/03 11:53:18;;;;;;;5.10;1.25;;;18.00;99.90;;;;;;5007412;28;20046;-84
2022/10/03 11:55:53;;;;;;;5.97;1.40;;;18.00;99.90;;;;;;4971774;28;20511;-84
2022/10/03 11:58:33;;;;;;;8.80;1.88;;;18.00;99.90;;;;;;4976418;28;20034;-79
2022/10/03 12:01:17;;;;;;;4.25;1.17;;;18.00;99.90;;;;;;4992617;28;20269;-81
2022/10/03 12:04:01;;;;;;;6.20;1.48;;;18.10;99.90;;;;;;4996230;28;20490;-79
2022/10/03 12:10:10;;;;;;;7.07;1.35;;;18.40;99.90;;;;;;5001516;28;20159;-80
2022/10/03 12:12:42;;;;;;;5.93;1.45;;;18.40;99.90;;;;;;4991434;28;20128;-81
2022/10/03 12:15:20;;;;;;;4.85;1.25;;;18.40;99.90;;;;;;4994537;28;20034;-79
2022/10/03 12:18:19;;;;;;;5.15;1.65;;;18.30;99.90;;;;;;4991128;28;20416;-79
2022/10/03 12:21:33;;;;;;;6.63;1.52;;;18.20;99.90;;;;;;5002835;28;20463;-84
2022/10/03 12:24:03;;;;;;;3.72;1.02;;;18.10;99.90;;;;;;4941413;28;20129;-83
2022/10/03 12:26:52;;;;;;;7.63;1.67;;;18.00;99.90;;;;;;4973127;28;20037;-84
2022/10/03 12:29:20;;;;;;;5.57;1.58;;;17.90;99.90;;;;;;4990369;28;20038;-84
2022/10/03 12:32:18;;;;;;;6.20;1.45;;;17.80;99.90;;;;;;4980285;28;20510;-83
2022/10/03 12:34:56;;;;;;;7.38;1.55;;;17.90;99.90;;;;;;4993843;28;20386;-83
2022/10/03 12:37:52;;;;;;;6.38;1.38;;;17.90;99.90;;;;;;4975492;28;20042;-81
2022/10/03 12:40:30;;;;;;;4.63;1.73;;;18.00;99.90;;;;;;4989889;28;20509;-84
2022/10/03 12:43:34;;;;;;;4.38;1.35;;;18.00;99.90;;;;;;4979942;28;20046;-83
2022/10/03 12:46:36;;;;;;;6.85;1.35;;;18.10;99.90;;;;;;4976133;28;20149;-84
2022/10/03 12:49:10;;;;;;;4.15;1.13;;;18.20;99.90;;;;;;4967038;28;20050;-84
2022/10/03 12:51:54;;;;;;;6.93;1.23;;;18.20;99.90;;;;;;4987663;28;20073;-82
2022/10/03 12:54:48;;;;;;;7.15;1.58;;;18.20;99.90;;;;;;4996306;28;20292;-83
2022/10/03 12:57:32;;;;;;;6.68;1.83;;;18.30;99.90;;;;;;4996730;28;20398;-82
2022/10/03 13:00:16;;;;;;;6.88;1.10;;;18.30;99.90;;;;;;4996401;28;20037;-83
2022/10/03 13:02:46;;;;;;;;;;;18.20;99.20;;;;;;4983828;28;20045;-84
2022/10/03 13:05:27;;;;;;;4.47;0.98;;;18.20;99.90;;;;;;4978695;28;19921;-82
2022/10/03 13:08:03;;;;;;;6.13;1.70;;;18.20;99.90;;;;;;5000737;28;20069;-84
2022/10/03 13:10:38;;;;;;;4.95;1.20;;;18.30;99.90;;;;;;4978029;28;20037;-84
2022/10/03 13:13:22;;;;;;;4.90;1.25;;;18.20;99.30;;;;;;4979289;28;20461;-81
2022/10/03 13:16:08;;;;;;;8.77;1.50;;;18.10;99.30;;;;;;4973654;28;20447;-84
2022/10/03 13:18:53;;;;;;;6.28;1.20;;;18.30;99.90;;;;;;4964855;28;20047;-83
2022/10/03 13:21:52;;;;;;;4.75;1.40;;;18.50;99.50;;;;;;4977433;28;20034;-84
2022/10/03 13:24:43;;;;;;;5.30;1.35;;;18.60;99.90;;;;;;4962332;28;20042;-85
2022/10/03 13:27:39;;;;;;;3.45;1.10;;;18.70;99.90;;;;;;4994185;28;20034;-84
2022/10/03 13:30:30;;;;;;;3.97;1.45;;;18.90;99.90;;;;;;4993512;28;20474;-84
2022/10/03 13:33:18;;;;;;;6.95;1.15;;;18.70;99.60;;;;;;4994659;28;20494;-85
2022/10/03 13:35:58;;;;;;;7.97;1.80;;;18.60;99.30;;;;;;4973812;28;20084;-86
2022/10/03 13:38:44;;;;;;;4.47;1.05;;;18.60;99.30;;;;;;4994579;28;20101;-85
2022/10/03 13:41:16;;;;;;;8.15;1.98;;;18.60;99.70;;;;;;4992427;28;20042;-85
2022/10/03 13:43:49;;;;;;;6.63;1.45;;;18.50;99.50;;;;;;4983194;28;20037;-84
2022/10/03 13:46:23;;;;;;;6.20;1.60;;;18.40;99.30;;;;;;4997480;28;20042;-83
2022/10/03 13:52:46;;;;;;;4.65;1.33;;;18.50;99.80;;;;;;4971045;28;20120;-85
2022/10/03 13:55:27;;;;;;;5.55;1.10;;;18.30;99.90;;;;;;4997417;28;20124;-82
2022/10/03 13:58:10;;;;;;;3.92;1.10;;;18.40;99.90;;;;;;4983735;28;20080;-86
2022/10/03 14:01:02;;;;;;;7.82;2.38;;;18.40;99.80;;;;;;4991671;28;20042;-83
2022/10/03 14:03:40;;;;;;;6.03;2.03;;;18.30;99.60;;;;;;4997394;28;20059;-82
2022/10/03 14:06:14;;;;;;;7.60;1.50;;;18.20;99.50;;;;;;4976318;28;20045;-85
2022/10/03 14:09:03;;;;;;;5.72;1.63;;;18.10;99.70;;;;;;4981839;28;20078;-85
2022/10/03 14:12:10;;;;;;;6.57;1.42;;;18.10;99.90;;;;;;4997200;28;20414;-85
2022/10/03 14:15:14;;;;;;;6.72;1.30;;;18.20;99.90;;;;;;4976901;28;20077;-84
2022/10/03 14:18:02;;;;;;;7.13;1.42;;;18.20;99.90;;;;;;4964333;28;20080;-84
2022/10/03 14:20:58;;;;;;;4.38;1.20;;;18.10;99.90;;;;;;4981219;28;20552;-84
2022/10/03 14:23:33;;;;;;;5.22;1.30;;;18.10;99.90;;;;;;4973971;28;20049;-84
2022/10/03 14:26:10;;;;;;;4.55;1.00;;;18.00;99.90;;;;;;4989572;28;20125;-83
2022/10/03 14:28:57;;;;;;;7.10;1.70;;;17.90;99.90;;;;;;4990082;28;20534;-82
2022/10/03 14:31:30;;;;;;;7.10;1.67;;;17.90;99.90;;;;;;4969479;28;20034;-81
2022/10/03 14:34:30;;;;;;;5.60;1.47;;;17.70;99.90;;;;;;4985127;28;20046;-84
2022/10/03 14:37:01;;;;;;;5.75;1.83;;;17.70;99.90;;;;;;4992472;28;20292;-84
2022/10/03 14:39:43;;;;;;;13.32;1.92;;;17.70;99.90;;;;;;4977765;28;20443;-84
2022/10/03 14:42:30;;;;;;;5.18;1.30;;;17.70;99.90;;;;;;4989740;28;20038;-81
2022/10/03 14:45:02;;;;;;;7.57;1.40;;;17.30;99.90;;;;;;4974468;28;20038;-84
2022/10/03 14:47:45;;;;;;;7.93;1.95;;;17.70;99.90;;;;;;4973215;28;20069;-82
2022/10/03 14:50:49;;;;;;;7.55;1.73;;;17.30;99.90;;;;;;4978870;28;20530;-83